Captain Cook, HI

12:44 AM HST on April 21, 2015 (GMT -1000)
Hilo International | | Change Station
CLOSE
Current Station
Airport
Location: Hilo,
Elevation: 36 ft
Nearby Weather Stations

Elev 36 ft 19.72 °N, 155.05 °W | Updated 10 minutes ago

Light Rain
Light Rain
67 °F
Feels Like 67 °F
N
8
Wind Variable Wind from West

Today
High -- | Low -- °F
--% Chance of Precip.
Yesterday
High -- | Low -- °F
Precip. -- in
6:01 AM 6:43 PM
Waxing Crescent, 9% visible
Pressure 30.10 in
Visibility 8.0 miles
Clouds Scattered Clouds 1900 ft
Mostly Cloudy 2600 ft
Overcast 4300 ft
Dew Point 65 °F
Humidity 93%
Rainfall 0.00 in
Snow Depth Not available.
UV 0 out of 12
Pollen Not available.
Air Quality Not available.
Flu Activity Regional
SPECI PHTO 211034Z 27007KT 8SM -RA SCT019 BKN026 OVC043 19/18 A3010 RMK AO2 P0015 T01940183

More Conditions Fewer Conditions

Pressure 30.10 in
Visibility 8.0 miles
Clouds Scattered Clouds 1900 ft
Mostly Cloudy 2600 ft
Overcast 4300 ft
Dew Point 65 °F
Humidity 93%
Rainfall 0.00 in
Snow Depth Not available.
UV 0 out of 12
Pollen Not available.
Air Quality Not available.
Flu Activity Regional
SPECI PHTO 211034Z 27007KT 8SM -RA SCT019 BKN026 OVC043 19/18 A3010 RMK AO2 P0015 T01940183

More Conditions Fewer Conditions

10-Day Weather Forecast

Almanac

Astronomy

Apr. 21, 2015 Rise Set
Actual Time
Civil Twilight
Nautical Twilight
Astronomical Twilight
Moon
Length of Visible Light
Length of Day
Tomorrow will be .
, % of the Moon is Illuminated

Today's Extremes

State Highs State Lows

Community

WunderPhotos

Upload Photos

1,815,340 photos uploaded!

WunderBlogs® & News

Nearby

Air Quality

  Air Quality AQ Index Pollutant
Not available.

Snow Depth

Station Depth Elevation

Earthquake Activity

City Distance Mag. Time & Date
Minimum magnitude displayed is 2.5.

Coastal Water Temperatures

Place Temperature

Stations

Nearby Weather Stations

Station Location Temp. Windchill Dew Point Humidity Wind Precip. Elev Updated Type